createdAt,value
2022-08-24T00:01:15.639Z,59.30
2022-08-24T00:03:45.265Z,59.80
2022-08-24T00:06:15.448Z,59.27
2022-08-24T00:08:44.114Z,58.77
2022-08-24T00:11:12.089Z,60.00
2022-08-24T00:13:40.094Z,58.80
2022-08-24T00:16:10.512Z,58.67
2022-08-24T00:18:39.279Z,58.50
2022-08-24T00:21:08.050Z,59.30
2022-08-24T00:23:36.935Z,58.33
2022-08-24T00:26:06.055Z,59.80
2022-08-24T00:28:34.635Z,59.47
2022-08-24T00:31:02.888Z,59.93
2022-08-24T00:33:33.994Z,58.27
2022-08-24T00:36:02.089Z,59.40
2022-08-24T00:38:30.419Z,58.10
2022-08-24T00:40:58.529Z,58.20
2022-08-24T00:43:27.264Z,58.50
2022-08-24T00:46:08.784Z,60.17
2022-08-24T00:48:41.923Z,58.23
2022-08-24T00:51:15.983Z,58.83
2022-08-24T00:53:49.369Z,59.27
2022-08-24T00:56:21.839Z,58.10
2022-08-24T00:58:57.264Z,58.53
2022-08-24T01:01:26.731Z,59.37
2022-08-24T01:03:58.013Z,58.33
2022-08-24T01:06:26.110Z,58.70
2022-08-24T01:08:56.815Z,58.77
2022-08-24T01:11:27.429Z,59.10
2022-08-24T01:13:59.577Z,58.63
2022-08-24T01:16:53.385Z,58.90
2022-08-24T01:19:38.137Z,58.87
2022-08-24T01:22:26.945Z,58.77
2022-08-24T01:24:56.326Z,56.97
2022-08-24T01:27:26.694Z,58.40
2022-08-24T01:29:57.741Z,59.10
2022-08-24T01:32:27.774Z,58.93
2022-08-24T01:34:55.740Z,57.97
2022-08-24T01:37:24.315Z,59.17
2022-08-24T01:39:55.034Z,57.57
2022-08-24T01:42:26.457Z,58.77
2022-08-24T01:44:54.680Z,58.90
2022-08-24T01:47:22.544Z,58.17
2022-08-24T01:49:50.778Z,58.20
2022-08-24T01:52:25.261Z,58.87
2022-08-24T01:54:54.444Z,58.13
2022-08-24T01:57:27.638Z,58.60
2022-08-24T01:59:57.721Z,58.47
2022-08-24T02:02:30.875Z,59.00
2022-08-24T02:04:59.050Z,58.13
2022-08-24T02:07:27.192Z,59.57
2022-08-24T02:09:55.095Z,58.17
2022-08-24T02:12:23.050Z,57.80
2022-08-24T02:14:52.384Z,58.50
2022-08-24T02:17:20.602Z,58.43
2022-08-24T02:19:48.517Z,58.40
2022-08-24T02:22:16.626Z,58.10
2022-08-24T02:24:44.517Z,58.40
2022-08-24T02:27:16.908Z,57.27
2022-08-24T02:29:46.025Z,58.30
2022-08-24T02:32:16.236Z,58.50
2022-08-24T02:34:44.449Z,58.07
2022-08-24T02:37:12.445Z,59.10
2022-08-24T02:39:40.725Z,59.37
2022-08-24T02:42:15.329Z,59.20
2022-08-24T02:44:43.184Z,57.90
2022-08-24T02:47:11.129Z,58.27
2022-08-24T02:49:40.318Z,58.43
2022-08-24T02:52:08.308Z,57.90
2022-08-24T02:54:39.549Z,58.23
2022-08-24T02:57:07.963Z,58.47
2022-08-24T02:59:36.384Z,58.87
2022-08-24T03:02:04.836Z,57.60
2022-08-24T03:04:32.758Z,57.87
2022-08-24T03:07:03.621Z,58.23
2022-08-24T03:09:31.570Z,58.60
2022-08-24T03:11:59.715Z,58.47
2022-08-24T03:14:27.521Z,58.50
2022-08-24T03:16:55.897Z,58.40
2022-08-24T03:19:23.999Z,58.40
2022-08-24T03:21:53.539Z,58.87
2022-08-24T03:24:23.353Z,59.20
2022-08-24T03:26:51.519Z,57.97
2022-08-24T03:29:19.830Z,57.13
2022-08-24T03:31:48.194Z,58.63
2022-08-24T03:34:16.601Z,58.60
2022-08-24T03:36:46.894Z,58.43
2022-08-24T03:39:16.954Z,58.13
2022-08-24T03:41:46.207Z,57.60
2022-08-24T03:44:14.066Z,58.57
2022-08-24T03:46:42.733Z,58.17
2022-08-24T03:49:11.141Z,58.00
2022-08-24T03:51:39.367Z,58.23
2022-08-24T03:54:11.090Z,58.37
2022-08-24T03:56:39.572Z,57.77
2022-08-24T03:59:10.499Z,57.47
2022-08-24T04:01:41.650Z,58.57
2022-08-24T04:04:10.207Z,57.77
2022-08-24T04:06:40.376Z,57.77
2022-08-24T04:09:08.746Z,57.80
2022-08-24T04:11:41.429Z,58.70
2022-08-24T04:14:12.180Z,57.83
2022-08-24T04:17:02.013Z,57.87
2022-08-24T04:19:35.444Z,58.30
2022-08-24T04:22:03.328Z,57.73
2022-08-24T04:24:31.913Z,57.47
2022-08-24T04:26:59.867Z,58.10
2022-08-24T04:29:29.084Z,57.37
2022-08-24T04:31:58.196Z,58.00
2022-08-24T04:34:27.224Z,57.27
2022-08-24T04:36:55.144Z,57.27
2022-08-24T04:39:23.573Z,58.93
2022-08-24T04:42:19.809Z,57.57
2022-08-24T04:44:48.976Z,57.90
2022-08-24T04:47:16.881Z,57.83
2022-08-24T04:49:44.789Z,59.17
2022-08-24T04:52:12.616Z,58.00
2022-08-24T04:54:42.582Z,58.43
2022-08-24T04:57:19.253Z,58.17
2022-08-24T04:59:49.595Z,57.70
2022-08-24T05:02:18.218Z,58.70
2022-08-24T05:04:49.505Z,57.90
2022-08-24T05:07:18.641Z,57.67
2022-08-24T05:09:47.190Z,57.37
2022-08-24T05:12:15.104Z,57.57
2022-08-24T05:14:53.989Z,57.47
2022-08-24T05:17:22.284Z,57.50
2022-08-24T05:19:50.740Z,57.67
2022-08-24T05:22:18.737Z,57.90
2022-08-24T05:24:51.009Z,58.40
2022-08-24T05:27:19.704Z,58.13
2022-08-24T05:29:56.083Z,58.33
2022-08-24T05:32:24.443Z,58.30
2022-08-24T05:34:54.100Z,58.20
2022-08-24T05:37:22.104Z,57.70
2022-08-24T05:40:11.926Z,58.50
2022-08-24T05:42:42.145Z,58.27
2022-08-24T05:45:12.722Z,58.63
2022-08-24T05:47:41.096Z,57.10
2022-08-24T05:50:23.036Z,57.03
2022-08-24T05:52:50.860Z,58.40
2022-08-24T05:55:20.312Z,58.60
2022-08-24T05:57:48.152Z,58.60
2022-08-24T06:00:25.574Z,58.37
2022-08-24T06:02:53.774Z,58.20
2022-08-24T06:05:23.006Z,57.87
2022-08-24T06:07:50.980Z,58.40
2022-08-24T06:10:36.250Z,57.90
2022-08-24T06:13:05.346Z,57.80
2022-08-24T06:15:35.246Z,57.80
2022-08-24T06:18:03.556Z,57.60
2022-08-24T06:20:32.068Z,57.60
2022-08-24T06:23:00.219Z,57.70
2022-08-24T06:25:52.617Z,58.20
2022-08-24T06:28:20.453Z,58.10
2022-08-24T06:30:50.189Z,57.93
2022-08-24T06:33:26.027Z,58.27
2022-08-24T06:35:55.360Z,56.77
2022-08-24T06:38:24.558Z,57.63
2022-08-24T06:40:54.238Z,57.73
2022-08-24T06:43:24.373Z,57.30
2022-08-24T06:45:56.971Z,57.37
2022-08-24T06:48:31.108Z,58.60
2022-08-24T06:50:59.722Z,58.67
2022-08-24T06:53:28.916Z,57.80
2022-08-24T06:55:59.743Z,58.17
2022-08-24T06:58:29.410Z,58.40
2022-08-24T07:00:59.637Z,57.57
2022-08-24T07:03:27.673Z,58.00
2022-08-24T07:06:04.495Z,58.53
2022-08-24T07:08:42.947Z,59.00
2022-08-24T07:11:14.936Z,58.47
2022-08-24T07:13:43.373Z,58.63
2022-08-24T07:16:12.590Z,57.33
2022-08-24T07:18:41.190Z,58.07
2022-08-24T07:21:09.783Z,57.87
2022-08-24T07:23:46.101Z,58.53
2022-08-24T07:26:21.286Z,57.70
2022-08-24T07:28:51.442Z,58.47
2022-08-24T07:31:21.416Z,58.30
2022-08-24T07:34:03.786Z,57.67
2022-08-24T07:36:32.174Z,57.90
2022-08-24T07:39:01.236Z,57.40
2022-08-24T07:41:43.513Z,58.67
2022-08-24T07:44:20.510Z,58.50
2022-08-24T07:46:50.327Z,58.50
2022-08-24T07:49:33.170Z,58.87
2022-08-24T07:52:05.761Z,59.17
2022-08-24T07:54:34.433Z,59.27
2022-08-24T07:57:04.107Z,59.80
2022-08-24T07:59:31.947Z,60.43
2022-08-24T08:02:01.465Z,61.63
2022-08-24T08:04:29.410Z,62.73
2022-08-24T08:06:58.843Z,64.00
2022-08-24T08:09:26.985Z,62.23
2022-08-24T08:11:55.179Z,63.23
2022-08-24T08:14:23.017Z,61.63
2022-08-24T08:16:51.623Z,60.67
2022-08-24T08:19:20.827Z,61.53
2022-08-24T08:22:09.319Z,61.20
2022-08-24T08:24:51.154Z,59.17
2022-08-24T08:27:20.880Z,60.53
2022-08-24T08:29:49.132Z,60.33
2022-08-24T08:32:19.917Z,60.07
2022-08-24T08:34:51.077Z,60.53
2022-08-24T08:37:19.472Z,60.00
2022-08-24T08:39:47.563Z,60.23
2022-08-24T08:42:34.092Z,59.50
2022-08-24T08:45:12.580Z,59.07
2022-08-24T08:48:04.771Z,59.60
2022-08-24T08:50:47.588Z,59.03
2022-08-24T08:53:47.789Z,59.70
2022-08-24T08:56:21.969Z,58.47
2022-08-24T08:59:03.385Z,60.13
2022-08-24T09:01:53.577Z,59.83
2022-08-24T09:05:03.753Z,59.43
2022-08-24T09:07:47.805Z,58.87
2022-08-24T09:10:41.149Z,59.83
2022-08-24T09:13:23.873Z,59.10
2022-08-24T09:16:24.718Z,59.37
2022-08-24T09:19:07.552Z,60.37
2022-08-24T09:21:46.808Z,59.17
2022-08-24T09:24:29.740Z,59.43
2022-08-24T09:27:17.541Z,59.47
2022-08-24T09:30:03.483Z,59.63
2022-08-24T09:32:46.893Z,59.63
2022-08-24T09:35:26.912Z,60.47
2022-08-24T09:38:01.447Z,59.73
2022-08-24T09:40:45.237Z,60.70
2022-08-24T09:43:50.260Z,59.87
2022-08-24T09:46:47.587Z,60.30
2022-08-24T09:49:33.618Z,59.50
2022-08-24T09:52:19.338Z,60.20
2022-08-24T09:55:24.385Z,59.30
2022-08-24T09:58:08.439Z,60.20
2022-08-24T10:00:44.886Z,58.50
2022-08-24T10:03:37.743Z,59.97
2022-08-24T10:06:18.785Z,60.37
2022-08-24T10:09:11.868Z,60.23
2022-08-24T10:11:51.253Z,60.40
2022-08-24T10:14:36.810Z,60.60
2022-08-24T10:17:14.452Z,60.43
2022-08-24T10:19:55.532Z,60.80
2022-08-24T10:22:33.674Z,60.23
2022-08-24T10:25:18.035Z,59.57
2022-08-24T10:27:58.478Z,60.63
2022-08-24T10:30:55.347Z,60.87
2022-08-24T10:33:26.344Z,60.27
2022-08-24T10:36:15.653Z,60.53
2022-08-24T10:39:08.453Z,58.93
2022-08-24T10:42:47.046Z,60.43
2022-08-24T10:45:22.297Z,60.40
2022-08-24T10:48:06.333Z,60.00
2022-08-24T10:50:51.492Z,60.50
2022-08-24T10:53:24.421Z,59.67
2022-08-24T10:56:05.409Z,59.30
2022-08-24T10:58:46.130Z,58.60
2022-08-24T11:01:23.566Z,59.73
2022-08-24T11:03:57.427Z,60.10
2022-08-24T11:06:27.573Z,59.33
2022-08-24T11:08:59.385Z,59.47
2022-08-24T11:11:31.027Z,60.20
2022-08-24T11:14:01.759Z,59.80
2022-08-24T11:16:33.571Z,60.27
2022-08-24T11:19:05.162Z,58.90
2022-08-24T11:21:46.888Z,59.90
2022-08-24T11:24:28.829Z,59.40
2022-08-24T11:27:00.826Z,60.20
2022-08-24T11:29:31.657Z,59.50
2022-08-24T11:32:00.558Z,59.90
2022-08-24T11:34:35.940Z,59.87
2022-08-24T11:37:04.831Z,60.23
2022-08-24T11:39:35.465Z,59.63
2022-08-24T11:42:15.968Z,60.03
2022-08-24T11:44:49.741Z,59.23
2022-08-24T11:47:46.011Z,60.27
2022-08-24T11:50:27.488Z,60.00
2022-08-24T11:53:12.374Z,60.07
2022-08-24T11:55:51.688Z,60.30
2022-08-24T11:58:35.525Z,60.33
2022-08-24T12:01:09.587Z,59.80
2022-08-24T12:03:52.691Z,59.77
2022-08-24T12:06:35.069Z,60.70
2022-08-24T12:09:10.220Z,60.63
2022-08-24T12:11:44.447Z,60.17
2022-08-24T12:14:21.837Z,59.23
2022-08-24T12:16:56.040Z,60.13
2022-08-24T12:19:29.490Z,60.47
2022-08-24T12:22:01.732Z,60.97
2022-08-24T12:24:33.329Z,59.30
2022-08-24T12:27:06.055Z,59.30
2022-08-24T12:29:42.774Z,60.43
2022-08-24T12:32:15.949Z,59.70
2022-08-24T12:34:55.885Z,59.80
2022-08-24T12:37:34.857Z,59.90
2022-08-24T12:40:11.112Z,60.93
2022-08-24T12:42:51.726Z,60.20
2022-08-24T12:45:22.047Z,60.57
2022-08-24T12:47:56.654Z,60.43
2022-08-24T12:50:31.521Z,60.53
2022-08-24T12:53:43.434Z,61.17
2022-08-24T12:56:35.797Z,59.50
2022-08-24T12:59:21.263Z,61.17
2022-08-24T13:01:59.203Z,60.80
2022-08-24T13:04:38.545Z,59.27
2022-08-24T13:07:10.004Z,60.70
2022-08-24T13:09:42.233Z,60.20
2022-08-24T13:12:47.577Z,59.80
2022-08-24T13:15:48.189Z,59.30
2022-08-24T13:18:51.534Z,60.47
2022-08-24T13:21:39.377Z,59.77
2022-08-24T13:24:49.835Z,59.33
2022-08-24T13:28:06.737Z,59.77
2022-08-24T13:31:15.002Z,60.47
2022-08-24T13:33:46.877Z,59.87
2022-08-24T13:37:06.740Z,60.10
2022-08-24T13:39:50.041Z,60.07
2022-08-24T13:42:31.102Z,59.80
2022-08-24T13:45:22.840Z,60.13
2022-08-24T13:48:03.981Z,59.53
2022-08-24T13:50:38.761Z,60.23
2022-08-24T13:53:38.537Z,60.03
2022-08-24T13:56:32.418Z,59.37
2022-08-24T13:59:09.847Z,59.73
2022-08-24T14:01:50.889Z,61.17
2022-08-24T14:04:45.986Z,60.60
2022-08-24T14:07:19.499Z,60.60
2022-08-24T14:10:02.322Z,60.30
2022-08-24T14:12:46.908Z,61.27
2022-08-24T14:15:31.003Z,60.30
2022-08-24T14:18:09.240Z,60.70
2022-08-24T14:20:55.557Z,59.27
2022-08-24T14:23:52.242Z,60.70
2022-08-24T14:26:57.484Z,58.83
2022-08-24T14:29:47.271Z,59.90
2022-08-24T14:32:35.451Z,61.13
2022-08-24T14:35:31.240Z,59.87
2022-08-24T14:38:12.930Z,60.67
2022-08-24T14:40:56.296Z,60.90
2022-08-24T14:43:31.411Z,61.33
2022-08-24T14:46:09.159Z,60.67
2022-08-24T14:48:47.177Z,60.93
2022-08-24T14:51:31.513Z,60.47
2022-08-24T14:54:12.140Z,60.70
2022-08-24T14:56:51.516Z,60.17
2022-08-24T14:59:32.861Z,60.77
2022-08-24T15:02:38.677Z,61.20
2022-08-24T15:05:24.669Z,61.23
2022-08-24T15:07:55.909Z,61.17
2022-08-24T15:10:28.835Z,59.80
2022-08-24T15:13:03.589Z,60.93
2022-08-24T15:15:36.221Z,60.97
2022-08-24T15:18:15.580Z,60.87
2022-08-24T15:21:00.036Z,60.17
2022-08-24T15:23:46.294Z,59.73
2022-08-24T15:26:25.101Z,60.10
2022-08-24T15:28:56.667Z,59.87
2022-08-24T15:31:27.492Z,61.57
2022-08-24T15:33:58.321Z,62.13
2022-08-24T15:36:28.110Z,60.87
2022-08-24T15:38:55.957Z,61.10
2022-08-24T15:41:29.890Z,60.67
2022-08-24T15:44:00.615Z,60.30
2022-08-24T15:46:34.607Z,60.70
2022-08-24T15:49:07.001Z,61.57
2022-08-24T15:51:47.472Z,60.93
2022-08-24T15:54:26.686Z,60.00
2022-08-24T15:56:58.419Z,60.17
2022-08-24T15:59:28.630Z,61.30
2022-08-24T16:02:28.495Z,61.83
2022-08-24T16:05:10.102Z,61.13
2022-08-24T16:08:08.967Z,61.67
2022-08-24T16:10:40.392Z,60.83
2022-08-24T16:13:20.430Z,61.23
2022-08-24T16:15:51.185Z,60.83
2022-08-24T16:18:21.184Z,61.27
2022-08-24T16:20:50.916Z,60.73
2022-08-24T16:23:25.476Z,60.87
2022-08-24T16:26:21.070Z,61.07
2022-08-24T16:28:51.960Z,59.70
2022-08-24T16:31:47.933Z,60.97
2022-08-24T16:34:28.580Z,61.23
2022-08-24T16:36:56.542Z,61.30
2022-08-24T16:39:24.767Z,60.63
2022-08-24T16:41:54.685Z,61.30
2022-08-24T16:44:26.155Z,61.37
2022-08-24T16:46:54.188Z,60.50
2022-08-24T16:49:22.066Z,60.60
2022-08-24T16:51:49.945Z,61.03
2022-08-24T16:54:17.831Z,61.27
2022-08-24T16:56:46.200Z,61.73
2022-08-24T16:59:19.440Z,61.87
2022-08-24T17:01:49.568Z,61.80
2022-08-24T17:04:17.913Z,61.57
2022-08-24T17:06:47.905Z,61.60
2022-08-24T17:09:15.820Z,61.57
2022-08-24T17:11:44.001Z,61.77
2022-08-24T17:14:11.817Z,62.10
2022-08-24T17:16:39.880Z,61.57
2022-08-24T17:19:13.567Z,61.90
2022-08-24T17:21:42.337Z,60.93
2022-08-24T17:24:11.541Z,61.53
2022-08-24T17:26:48.302Z,62.20
2022-08-24T17:29:18.652Z,60.43
2022-08-24T17:31:49.661Z,60.67
2022-08-24T17:34:21.315Z,61.20
2022-08-24T17:36:50.573Z,60.57
2022-08-24T17:39:20.027Z,61.77
2022-08-24T17:41:48.466Z,60.70
2022-08-24T17:44:23.548Z,61.63
2022-08-24T17:46:52.091Z,61.00
2022-08-24T17:49:21.358Z,60.10
2022-08-24T17:51:49.773Z,61.47
2022-08-24T17:54:18.138Z,61.10
2022-08-24T17:56:48.796Z,61.33
2022-08-24T17:59:26.378Z,61.63
2022-08-24T18:01:56.993Z,61.70
2022-08-24T18:04:30.209Z,61.57
2022-08-24T18:07:02.949Z,61.00
2022-08-24T18:09:35.373Z,59.83
2022-08-24T18:12:07.063Z,61.27
2022-08-24T18:14:35.293Z,61.13
2022-08-24T18:17:06.535Z,61.47
2022-08-24T18:19:36.523Z,61.43
2022-08-24T18:22:05.329Z,62.17
2022-08-24T18:24:33.810Z,61.83
2022-08-24T18:27:10.021Z,61.93
2022-08-24T18:29:40.177Z,61.93
2022-08-24T18:32:08.270Z,61.27
2022-08-24T18:34:37.511Z,61.33
2022-08-24T18:37:05.594Z,61.37
2022-08-24T18:39:33.594Z,61.70
2022-08-24T18:42:04.076Z,61.43
2022-08-24T18:44:32.122Z,61.67
2022-08-24T18:47:00.139Z,61.07
2022-08-24T18:49:28.403Z,61.17
2022-08-24T18:51:58.475Z,61.20
2022-08-24T18:54:32.262Z,60.83
2022-08-24T18:57:00.139Z,62.43
2022-08-24T18:59:28.089Z,60.37
2022-08-24T19:02:13.523Z,60.80
2022-08-24T19:04:45.493Z,61.20
2022-08-24T19:07:15.570Z,61.37
2022-08-24T19:09:43.560Z,60.97
2022-08-24T19:12:12.076Z,60.87
2022-08-24T19:14:44.529Z,60.67
2022-08-24T19:17:14.381Z,61.40
2022-08-24T19:19:42.479Z,60.87
2022-08-24T19:22:10.606Z,61.90
2022-08-24T19:24:40.111Z,60.17
2022-08-24T19:27:07.976Z,60.10
2022-08-24T19:29:55.250Z,61.97
2022-08-24T19:32:27.205Z,61.40
2022-08-24T19:34:55.947Z,61.27
2022-08-24T19:37:24.067Z,61.37
2022-08-24T19:39:53.319Z,59.17
2022-08-24T19:42:22.656Z,61.30
2022-08-24T19:45:11.425Z,61.00
2022-08-24T19:47:39.693Z,60.47
2022-08-24T19:50:08.817Z,61.30
2022-08-24T19:52:37.781Z,60.90
2022-08-24T19:55:09.907Z,61.60
2022-08-24T19:57:43.721Z,59.90
2022-08-24T20:00:26.247Z,60.90
2022-08-24T20:02:56.007Z,61.27
2022-08-24T20:05:26.416Z,60.70
2022-08-24T20:07:54.793Z,60.43
2022-08-24T20:10:25.546Z,60.83
2022-08-24T20:12:53.904Z,60.87
2022-08-24T20:15:22.321Z,60.47
2022-08-24T20:17:51.109Z,60.60
2022-08-24T20:20:22.971Z,60.73
2022-08-24T20:22:51.442Z,61.00
2022-08-24T20:25:20.345Z,60.50
2022-08-24T20:27:58.078Z,61.30
2022-08-24T20:30:34.715Z,60.77
2022-08-24T20:33:02.556Z,60.73
2022-08-24T20:35:30.881Z,61.47
2022-08-24T20:37:58.803Z,61.17
2022-08-24T20:40:27.555Z,60.87
2022-08-24T20:42:56.745Z,60.70
2022-08-24T20:45:24.657Z,60.20
2022-08-24T20:47:54.060Z,61.40
2022-08-24T20:50:24.372Z,61.27
2022-08-24T20:52:53.473Z,61.50
2022-08-24T20:55:24.621Z,61.27
2022-08-24T20:57:55.205Z,61.30
2022-08-24T21:00:25.179Z,59.77
2022-08-24T21:02:53.272Z,60.57
2022-08-24T21:05:21.226Z,60.93
2022-08-24T21:07:50.244Z,60.90
2022-08-24T21:10:19.237Z,59.87
2022-08-24T21:12:47.165Z,60.63
2022-08-24T21:15:15.805Z,61.23
2022-08-24T21:17:46.239Z,61.97
2022-08-24T21:20:15.108Z,60.93
2022-08-24T21:22:44.911Z,60.83
2022-08-24T21:25:13.835Z,61.13
2022-08-24T21:27:43.905Z,60.83
2022-08-24T21:30:14.537Z,61.13
2022-08-24T21:33:01.297Z,60.43
2022-08-24T21:35:29.510Z,61.37
2022-08-24T21:37:57.411Z,61.20
2022-08-24T21:40:26.962Z,61.43
2022-08-24T21:42:54.920Z,62.20
2022-08-24T21:45:23.991Z,61.70
2022-08-24T21:47:53.899Z,60.73
2022-08-24T21:50:25.663Z,60.97
2022-08-24T21:52:54.319Z,61.43
2022-08-24T21:55:22.864Z,61.37
2022-08-24T21:57:52.101Z,60.53
2022-08-24T22:00:21.056Z,59.37
2022-08-24T22:02:49.051Z,61.53
2022-08-24T22:05:18.749Z,61.20
2022-08-24T22:07:47.046Z,61.37
2022-08-24T22:10:15.095Z,60.47
2022-08-24T22:12:43.850Z,60.80
2022-08-24T22:15:15.879Z,61.07
2022-08-24T22:17:45.830Z,61.10
2022-08-24T22:20:23.484Z,61.23
2022-08-24T22:22:51.980Z,61.07
2022-08-24T22:25:19.896Z,61.37
2022-08-24T22:27:47.952Z,60.23
2022-08-24T22:30:18.404Z,60.70
2022-08-24T22:32:46.967Z,61.40
2022-08-24T22:35:15.087Z,60.20
2022-08-24T22:37:44.291Z,59.50
2022-08-24T22:40:13.088Z,59.30
2022-08-24T22:42:41.515Z,60.13
2022-08-24T22:45:10.886Z,60.17
2022-08-24T22:47:39.177Z,60.87
2022-08-24T22:50:08.224Z,60.63
2022-08-24T22:52:36.054Z,60.90
2022-08-24T22:55:05.636Z,60.67
2022-08-24T22:57:34.425Z,60.53
2022-08-24T23:00:02.351Z,60.40
2022-08-24T23:02:30.323Z,60.53
2022-08-24T23:04:58.259Z,60.40
2022-08-24T23:07:26.126Z,60.40
2022-08-24T23:09:54.033Z,59.60
2022-08-24T23:12:26.305Z,60.37
2022-08-24T23:14:54.578Z,59.87
2022-08-24T23:17:23.474Z,60.57
2022-08-24T23:20:00.345Z,59.37
2022-08-24T23:22:29.822Z,59.90
2022-08-24T23:24:58.972Z,60.50
2022-08-24T23:27:37.720Z,59.67
2022-08-24T23:30:09.375Z,59.73
2022-08-24T23:32:37.372Z,60.43
2022-08-24T23:35:06.134Z,58.80
2022-08-24T23:37:33.965Z,59.87
2022-08-24T23:40:02.115Z,59.43
2022-08-24T23:42:31.364Z,60.27
2022-08-24T23:44:59.267Z,59.47
2022-08-24T23:47:27.773Z,60.37
2022-08-24T23:49:55.650Z,59.53
2022-08-24T23:52:27.283Z,59.57
2022-08-24T23:55:20.159Z,59.33
2022-08-24T23:57:47.027Z,59.10
